createdAt,value
2018-01-30T00:01:01.918Z,88.88
2018-01-30T00:03:29.394Z,88.93
2018-01-30T00:05:56.866Z,88.88
2018-01-30T00:08:24.366Z,88.81
2018-01-30T00:10:51.823Z,88.79
2018-01-30T00:13:19.300Z,88.54
2018-01-30T00:15:46.785Z,88.89
2018-01-30T00:18:14.260Z,89.14
2018-01-30T00:20:41.719Z,89.17
2018-01-30T00:23:09.194Z,89.36
2018-01-30T00:25:36.649Z,89.04
2018-01-30T00:28:04.122Z,88.93
2018-01-30T00:30:31.583Z,88.65
2018-01-30T00:32:59.058Z,88.51
2018-01-30T00:35:26.519Z,88.29
2018-01-30T00:37:53.996Z,88.03
2018-01-30T00:40:21.459Z,88.16
2018-01-30T00:42:48.950Z,88.68
2018-01-30T00:45:16.410Z,88.89
2018-01-30T00:47:43.898Z,89.40
2018-01-30T00:50:11.354Z,89.97
2018-01-30T00:52:38.826Z,89.46
2018-01-30T00:55:06.291Z,89.33
2018-01-30T00:57:33.746Z,89.47
2018-01-30T01:00:01.227Z,89.27
2018-01-30T01:02:28.678Z,89.50
2018-01-30T01:04:56.152Z,89.44
2018-01-30T01:07:23.698Z,89.63
2018-01-30T01:09:51.182Z,90.27
2018-01-30T01:12:18.650Z,90.46
2018-01-30T01:14:46.135Z,90.78
2018-01-30T01:17:13.606Z,91.10
2018-01-30T01:19:41.091Z,91.55
2018-01-30T01:22:08.560Z,90.88
2018-01-30T01:24:36.046Z,91.11
2018-01-30T01:27:03.502Z,90.63
2018-01-30T01:29:30.978Z,90.43
2018-01-30T01:31:58.434Z,90.12
2018-01-30T01:34:25.908Z,90.06
2018-01-30T01:36:53.396Z,89.85
2018-01-30T01:39:20.875Z,89.93
2018-01-30T01:41:48.326Z,90.14
2018-01-30T01:44:15.798Z,90.32
2018-01-30T01:46:43.252Z,90.60
2018-01-30T01:49:10.787Z,90.46
2018-01-30T01:51:38.254Z,90.42
2018-01-30T01:54:05.730Z,90.62
2018-01-30T01:56:33.195Z,90.76
2018-01-30T01:59:00.681Z,91.05
2018-01-30T02:01:28.151Z,91.29
2018-01-30T02:03:55.631Z,91.43
2018-01-30T02:06:23.096Z,91.37
2018-01-30T02:08:50.575Z,91.29
2018-01-30T02:11:18.022Z,91.26
2018-01-30T02:13:45.507Z,91.35
2018-01-30T02:16:12.971Z,91.46
2018-01-30T02:18:40.430Z,91.60
2018-01-30T02:21:07.915Z,91.60
2018-01-30T02:23:35.371Z,91.80
2018-01-30T02:26:02.856Z,91.87
2018-01-30T02:28:30.314Z,91.89
2018-01-30T02:30:57.787Z,91.96
2018-01-30T02:33:25.251Z,92.05
2018-01-30T02:35:52.723Z,92.00
2018-01-30T02:38:20.183Z,92.09
2018-01-30T02:40:47.664Z,92.21
2018-01-30T02:43:15.126Z,92.42
2018-01-30T02:45:42.609Z,92.64
2018-01-30T02:48:10.075Z,92.55
2018-01-30T02:50:37.567Z,92.37
2018-01-30T02:53:05.032Z,92.49
2018-01-30T02:55:32.505Z,92.66
2018-01-30T02:57:59.967Z,92.69
2018-01-30T03:00:27.447Z,93.16
2018-01-30T03:02:54.902Z,93.45
2018-01-30T03:05:22.386Z,93.51
2018-01-30T03:07:49.842Z,93.28
2018-01-30T03:10:17.324Z,93.20
2018-01-30T03:12:44.834Z,93.29
2018-01-30T03:15:12.286Z,93.27
2018-01-30T03:17:39.747Z,93.67
2018-01-30T03:22:36.432Z,93.36
2018-01-30T03:25:03.919Z,93.00
2018-01-30T03:27:31.380Z,92.89
2018-01-30T03:29:58.887Z,92.86
2018-01-30T03:32:26.351Z,92.80
2018-01-30T03:34:53.830Z,92.86
2018-01-30T03:37:21.298Z,92.85
2018-01-30T03:39:48.756Z,92.83
2018-01-30T03:42:16.234Z,92.94
2018-01-30T03:44:43.705Z,93.22
2018-01-30T03:47:11.179Z,93.31
2018-01-30T03:49:38.638Z,93.37
2018-01-30T03:52:06.119Z,93.35
2018-01-30T03:54:33.579Z,93.62
2018-01-30T03:57:01.066Z,93.15
2018-01-30T03:59:28.530Z,92.40
2018-01-30T04:01:56.010Z,92.28
2018-01-30T04:04:23.470Z,91.87
2018-01-30T04:06:50.946Z,91.79
2018-01-30T04:09:19.327Z,91.84
2018-01-30T04:11:46.806Z,91.85
2018-01-30T04:14:14.262Z,92.20
2018-01-30T04:16:41.761Z,92.14
2018-01-30T04:19:09.226Z,92.10
2018-01-30T04:21:36.762Z,92.05
2018-01-30T04:24:04.268Z,92.18
2018-01-30T04:26:31.781Z,92.42
2018-01-30T04:28:59.255Z,92.62
2018-01-30T04:31:26.738Z,92.34
2018-01-30T04:33:54.195Z,92.22
2018-01-30T04:36:21.675Z,92.10
2018-01-30T04:38:49.138Z,92.15
2018-01-30T04:41:16.614Z,92.28
2018-01-30T04:43:44.079Z,92.52
2018-01-30T04:46:11.555Z,92.79
2018-01-30T04:48:39.018Z,92.84
2018-01-30T04:51:06.493Z,92.82
2018-01-30T04:53:33.955Z,92.46
2018-01-30T04:56:01.434Z,91.76
2018-01-30T04:58:28.890Z,91.38
2018-01-30T05:00:56.387Z,90.97
2018-01-30T05:03:23.850Z,90.63
2018-01-30T05:05:51.302Z,90.54
2018-01-30T05:08:18.799Z,90.04
2018-01-30T05:10:46.257Z,89.81
2018-01-30T05:13:13.737Z,90.00
2018-01-30T05:15:41.202Z,90.08
2018-01-30T05:18:08.676Z,90.12
2018-01-30T05:20:36.138Z,89.62
2018-01-30T05:23:03.614Z,89.82
2018-01-30T05:25:31.078Z,89.66
2018-01-30T05:27:58.566Z,89.69
2018-01-30T05:30:26.032Z,89.76
2018-01-30T05:32:53.507Z,89.58
2018-01-30T05:35:20.978Z,89.30
2018-01-30T05:37:48.458Z,89.59
2018-01-30T05:40:15.921Z,89.32
2018-01-30T05:42:43.406Z,89.20
2018-01-30T05:45:10.872Z,89.07
2018-01-30T05:47:38.356Z,89.09
2018-01-30T05:50:05.860Z,89.18
2018-01-30T05:52:33.379Z,89.17
2018-01-30T05:55:00.819Z,89.22
2018-01-30T05:57:28.303Z,88.77
2018-01-30T05:59:55.770Z,88.79
2018-01-30T06:02:27.974Z,88.59
2018-01-30T06:04:55.437Z,88.75
2018-01-30T06:07:22.916Z,88.55
2018-01-30T06:09:50.374Z,88.72
2018-01-30T06:12:17.855Z,88.66
2018-01-30T06:14:45.322Z,88.89
2018-01-30T06:17:12.808Z,88.65
2018-01-30T06:19:40.281Z,88.61
2018-01-30T06:22:07.774Z,88.80
2018-01-30T06:24:35.234Z,88.84
2018-01-30T06:27:02.724Z,88.97
2018-01-30T06:29:30.255Z,89.15
2018-01-30T06:31:57.716Z,89.42
2018-01-30T06:34:25.255Z,89.56
2018-01-30T06:36:52.715Z,90.01
2018-01-30T06:39:20.199Z,90.15
2018-01-30T06:41:47.658Z,90.27
2018-01-30T06:44:15.138Z,89.58
2018-01-30T06:46:42.613Z,89.79
2018-01-30T06:49:10.098Z,90.07
2018-01-30T06:51:37.591Z,90.29
2018-01-30T06:54:05.075Z,90.63
2018-01-30T06:56:32.545Z,90.88
2018-01-30T06:59:00.029Z,90.50
2018-01-30T07:01:27.491Z,89.78
2018-01-30T07:03:54.966Z,89.01
2018-01-30T07:06:22.427Z,88.96
2018-01-30T07:08:49.909Z,88.36
2018-01-30T07:11:17.379Z,88.70
2018-01-30T07:13:44.855Z,88.64
2018-01-30T07:16:12.307Z,88.54
2018-01-30T07:18:39.786Z,88.73
2018-01-30T07:21:07.242Z,89.17
2018-01-30T07:23:34.723Z,89.54
2018-01-30T07:26:02.183Z,89.76
2018-01-30T07:28:29.669Z,90.01
2018-01-30T07:30:57.127Z,89.28
2018-01-30T07:33:24.599Z,89.10
2018-01-30T07:35:52.054Z,89.20
2018-01-30T07:38:19.547Z,89.05
2018-01-30T07:40:47.021Z,88.64
2018-01-30T07:43:14.511Z,89.53
2018-01-30T07:45:41.970Z,90.36
2018-01-30T07:48:09.463Z,89.97
2018-01-30T07:50:36.919Z,89.22
2018-01-30T07:53:05.370Z,89.40
2018-01-30T07:55:32.851Z,89.24
2018-01-30T07:58:00.307Z,88.79
2018-01-30T08:00:27.798Z,89.10
2018-01-30T08:02:55.255Z,88.89
2018-01-30T08:05:22.730Z,88.88
2018-01-30T08:07:50.196Z,88.64
2018-01-30T08:10:17.703Z,88.54
2018-01-30T08:12:45.166Z,88.13
2018-01-30T08:15:12.651Z,87.42
2018-01-30T08:17:40.112Z,87.85
2018-01-30T08:20:07.596Z,87.74
2018-01-30T08:22:35.055Z,87.29
2018-01-30T08:25:02.530Z,87.11
2018-01-30T08:27:29.990Z,86.62
2018-01-30T08:29:57.472Z,86.40
2018-01-30T08:32:24.943Z,86.30
2018-01-30T08:34:52.426Z,86.03
2018-01-30T08:37:19.882Z,85.92
2018-01-30T08:39:47.454Z,85.82
2018-01-30T08:42:14.915Z,85.14
2018-01-30T08:44:42.382Z,84.81
2018-01-30T08:47:09.847Z,85.12
2018-01-30T08:49:37.365Z,85.04
2018-01-30T08:52:04.851Z,85.51
2018-01-30T08:54:32.359Z,85.28
2018-01-30T08:56:59.814Z,84.06
2018-01-30T08:59:27.307Z,83.64
2018-01-30T09:01:54.762Z,84.04
2018-01-30T09:04:22.242Z,84.46
2018-01-30T09:06:49.723Z,84.00
2018-01-30T09:09:17.202Z,83.46
2018-01-30T09:11:44.673Z,83.58
2018-01-30T09:14:12.143Z,82.66
2018-01-30T09:16:39.603Z,82.72
2018-01-30T09:19:07.070Z,83.16
2018-01-30T09:21:34.563Z,83.07
2018-01-30T09:24:02.045Z,82.89
2018-01-30T09:26:29.530Z,82.16
2018-01-30T09:28:56.987Z,81.78
2018-01-30T09:31:24.462Z,81.69
2018-01-30T09:33:51.944Z,80.52
2018-01-30T09:36:19.439Z,80.79
2018-01-30T09:38:46.906Z,80.24
2018-01-30T09:41:14.413Z,79.75
2018-01-30T09:46:15.766Z,79.75
2018-01-30T09:48:43.219Z,79.32
2018-01-30T09:51:10.686Z,78.80
2018-01-30T09:53:38.175Z,78.00
2018-01-30T09:56:05.669Z,77.83
2018-01-30T09:58:33.127Z,77.65
2018-01-30T10:01:00.635Z,77.66
2018-01-30T10:03:28.089Z,77.51
2018-01-30T10:05:55.599Z,77.64
2018-01-30T10:08:23.048Z,77.27
2018-01-30T10:10:50.522Z,78.11
2018-01-30T10:13:17.985Z,77.57
2018-01-30T10:15:45.463Z,77.53
2018-01-30T10:18:12.918Z,77.35
2018-01-30T10:20:40.399Z,76.21
2018-01-30T10:23:07.870Z,76.39
2018-01-30T10:25:35.347Z,76.27
2018-01-30T10:28:02.807Z,76.68
2018-01-30T10:30:30.279Z,76.23
2018-01-30T10:32:57.732Z,76.88
2018-01-30T10:35:25.198Z,76.69
2018-01-30T10:37:53.212Z,77.04
2018-01-30T10:40:20.718Z,75.46
2018-01-30T10:42:48.171Z,75.82
2018-01-30T10:45:15.695Z,75.97
2018-01-30T10:47:43.231Z,75.84
2018-01-30T10:50:10.703Z,75.88
2018-01-30T10:52:38.174Z,75.94
2018-01-30T10:55:05.623Z,74.82
2018-01-30T10:57:33.110Z,74.61
2018-01-30T11:00:00.583Z,75.13
2018-01-30T11:02:28.082Z,74.78
2018-01-30T11:04:55.596Z,73.19
2018-01-30T11:07:23.042Z,73.43
2018-01-30T11:09:50.498Z,74.56
2018-01-30T11:12:17.967Z,73.45
2018-01-30T11:14:45.423Z,73.29
2018-01-30T11:17:12.894Z,71.94
2018-01-30T11:19:40.347Z,72.76
2018-01-30T11:22:07.855Z,71.12
2018-01-30T11:24:35.301Z,70.57
2018-01-30T11:27:02.767Z,69.23
2018-01-30T11:29:30.214Z,70.15
2018-01-30T11:31:57.684Z,69.38
2018-01-30T11:34:25.163Z,69.46
2018-01-30T11:36:52.639Z,68.67
2018-01-30T11:39:20.099Z,67.88
2018-01-30T11:41:47.569Z,67.81
2018-01-30T11:44:15.026Z,68.75
2018-01-30T11:46:43.111Z,67.88
2018-01-30T11:49:10.567Z,67.04
2018-01-30T11:51:38.044Z,67.59
2018-01-30T11:54:05.490Z,67.50
2018-01-30T11:56:32.970Z,67.08
2018-01-30T11:59:00.414Z,67.22
2018-01-30T12:01:27.887Z,65.00
2018-01-30T12:03:55.444Z,65.04
2018-01-30T12:06:22.895Z,64.03
2018-01-30T12:08:50.381Z,64.50
2018-01-30T12:11:17.843Z,65.91
2018-01-30T12:13:45.320Z,67.28
2018-01-30T12:16:12.770Z,65.70
2018-01-30T12:18:40.250Z,66.77
2018-01-30T12:21:07.705Z,66.16
2018-01-30T12:23:35.177Z,66.16
2018-01-30T12:26:02.691Z,66.29
2018-01-30T12:28:30.171Z,65.62
2018-01-30T12:30:57.630Z,66.61
2018-01-30T12:33:25.103Z,65.91
2018-01-30T12:35:53.655Z,67.43
2018-01-30T12:38:21.143Z,67.01
2018-01-30T12:40:48.601Z,65.83
2018-01-30T12:43:16.076Z,65.95
2018-01-30T12:45:43.531Z,64.73
2018-01-30T12:48:11.003Z,64.48
2018-01-30T12:50:38.463Z,65.95
2018-01-30T12:53:05.939Z,67.07
2018-01-30T12:55:33.399Z,66.77
2018-01-30T12:58:00.864Z,66.64
2018-01-30T13:00:28.321Z,67.50
2018-01-30T13:02:55.791Z,69.59
2018-01-30T13:05:23.244Z,67.78
2018-01-30T13:07:50.715Z,68.42
2018-01-30T13:10:18.175Z,67.54
2018-01-30T13:12:45.647Z,67.93
2018-01-30T13:15:13.098Z,66.08
2018-01-30T13:17:40.571Z,65.51
2018-01-30T13:20:08.027Z,65.97
2018-01-30T13:22:35.513Z,65.89
2018-01-30T13:25:02.974Z,64.03
2018-01-30T13:27:30.455Z,64.90
2018-01-30T13:29:58.760Z,64.01
2018-01-30T13:32:26.296Z,64.84
2018-01-30T13:34:53.812Z,64.61
2018-01-30T13:37:21.266Z,64.04
2018-01-30T13:39:48.739Z,63.45
2018-01-30T13:42:16.196Z,63.99
2018-01-30T13:44:43.691Z,64.22
2018-01-30T13:47:11.155Z,64.15
2018-01-30T13:49:38.635Z,66.65
2018-01-30T13:52:06.151Z,65.80
2018-01-30T13:54:33.629Z,64.20
2018-01-30T13:57:01.091Z,61.96
2018-01-30T13:59:28.558Z,61.00
2018-01-30T14:01:56.022Z,59.27
2018-01-30T14:04:23.500Z,56.94
2018-01-30T14:06:50.998Z,56.10
2018-01-30T14:09:18.468Z,57.53
2018-01-30T14:11:45.926Z,58.07
2018-01-30T14:14:13.407Z,57.88
2018-01-30T14:16:40.886Z,56.15
2018-01-30T14:19:08.363Z,56.64
2018-01-30T14:21:35.855Z,56.54
2018-01-30T14:24:03.337Z,54.10
2018-01-30T14:26:50.243Z,51.88
2018-01-30T14:29:17.819Z,49.83
2018-01-30T14:31:45.319Z,47.66
2018-01-30T14:34:12.838Z,48.42
2018-01-30T14:36:40.409Z,48.98
2018-01-30T14:39:07.894Z,52.57
2018-01-30T14:41:35.443Z,52.51
2018-01-30T14:44:02.966Z,54.76
2018-01-30T14:46:30.422Z,55.02
2018-01-30T14:48:57.998Z,60.77
2018-01-30T14:51:25.503Z,56.83
2018-01-30T14:53:52.978Z,59.17
2018-01-30T14:56:20.434Z,58.34
2018-01-30T14:58:47.914Z,56.11
2018-01-30T15:01:35.494Z,56.39
2018-01-30T15:04:02.990Z,60.58
2018-01-30T15:06:30.539Z,59.93
2018-01-30T15:08:58.114Z,60.92
2018-01-30T15:11:25.579Z,62.50
2018-01-30T15:13:53.051Z,63.77
2018-01-30T15:16:20.541Z,64.24
2018-01-30T15:18:48.239Z,66.29
2018-01-30T15:21:15.741Z,67.79
2018-01-30T15:23:43.301Z,67.27
2018-01-30T15:26:10.771Z,68.10
2018-01-30T15:28:38.282Z,68.75
2018-01-30T15:31:05.763Z,68.29
2018-01-30T15:33:33.242Z,69.58
2018-01-30T15:36:00.823Z,70.62
2018-01-30T15:38:28.297Z,70.69
2018-01-30T15:40:55.911Z,71.03
2018-01-30T15:43:23.399Z,70.90
2018-01-30T15:45:50.946Z,71.14
2018-01-30T15:48:18.410Z,71.91
2018-01-30T15:51:02.426Z,72.99
2018-01-30T15:53:31.834Z,73.68
2018-01-30T15:55:59.316Z,74.08
2018-01-30T15:58:26.767Z,74.86
2018-01-30T16:00:54.261Z,75.43
2018-01-30T16:03:21.758Z,75.57
2018-01-30T16:05:49.269Z,75.87
2018-01-30T16:08:16.811Z,75.85
2018-01-30T16:10:44.287Z,76.56
2018-01-30T16:13:11.771Z,77.40
2018-01-30T16:15:39.362Z,77.97
2018-01-30T16:18:06.949Z,79.10
2018-01-30T16:20:34.444Z,79.70
2018-01-30T16:23:01.937Z,80.15
2018-01-30T16:25:29.426Z,80.50
2018-01-30T16:27:56.899Z,80.63
2018-01-30T16:30:24.455Z,80.62
2018-01-30T16:32:51.911Z,80.49
2018-01-30T16:35:19.385Z,80.50
2018-01-30T16:37:46.842Z,80.33
2018-01-30T16:40:14.339Z,80.73
2018-01-30T16:42:41.854Z,81.16
2018-01-30T16:45:09.350Z,81.58
2018-01-30T16:47:53.572Z,81.77
2018-01-30T16:50:27.630Z,82.41
2018-01-30T16:52:55.155Z,82.96
2018-01-30T16:55:22.668Z,82.49
2018-01-30T16:57:50.183Z,82.72
2018-01-30T17:00:17.628Z,82.98
2018-01-30T17:02:45.155Z,82.79
2018-01-30T17:05:12.612Z,83.18
2018-01-30T17:07:40.153Z,83.45
2018-01-30T17:10:07.746Z,83.29
2018-01-30T17:12:35.271Z,83.08
2018-01-30T17:15:03.167Z,83.16
2018-01-30T17:17:30.727Z,83.07
2018-01-30T17:19:58.308Z,82.92
2018-01-30T17:25:05.266Z,82.48
2018-01-30T17:30:18.851Z,82.98
2018-01-30T17:32:59.830Z,83.47
2018-01-30T17:38:13.452Z,83.81
2018-01-30T17:49:54.396Z,81.96
2018-01-30T17:52:46.224Z,81.48
2018-01-30T17:55:13.686Z,81.45
2018-01-30T17:57:41.178Z,82.00
2018-01-30T18:00:08.630Z,82.02
2018-01-30T18:02:36.109Z,82.47
2018-01-30T18:05:03.566Z,82.27
2018-01-30T18:07:31.048Z,82.44
2018-01-30T18:09:58.508Z,81.84
2018-01-30T18:12:25.992Z,81.27
2018-01-30T18:14:53.475Z,81.74
2018-01-30T18:17:20.955Z,81.64
2018-01-30T18:19:48.426Z,81.11
2018-01-30T18:22:15.910Z,80.50
2018-01-30T18:24:43.366Z,78.85
2018-01-30T18:27:10.846Z,79.49
2018-01-30T18:29:38.294Z,78.14
2018-01-30T18:32:05.763Z,77.76
2018-01-30T18:34:33.211Z,76.59
2018-01-30T18:37:01.292Z,76.01
2018-01-30T18:39:28.899Z,77.24
2018-01-30T18:41:56.468Z,78.23
2018-01-30T18:44:24.022Z,79.45
2018-01-30T18:46:51.664Z,78.46
2018-01-30T18:49:19.202Z,77.75
2018-01-30T18:51:46.749Z,77.54
2018-01-30T18:54:14.371Z,76.74
2018-01-30T18:56:42.620Z,77.65
2018-01-30T18:59:10.161Z,77.35
2018-01-30T19:10:39.663Z,77.13
2018-01-30T19:13:07.206Z,77.06
2018-01-30T19:18:27.299Z,77.71
2018-01-30T19:26:59.838Z,79.30
2018-01-30T19:35:42.538Z,80.40
2018-01-30T19:38:12.220Z,80.60
2018-01-30T19:40:48.865Z,80.47
2018-01-30T19:45:57.325Z,81.61
2018-01-30T19:48:25.789Z,81.60
2018-01-30T19:50:53.351Z,81.81
2018-01-30T19:53:23.724Z,82.25
2018-01-30T19:58:38.033Z,81.34
2018-01-30T20:03:46.899Z,82.10
2018-01-30T20:06:14.355Z,82.72
2018-01-30T20:14:36.569Z,84.04
2018-01-30T20:19:56.712Z,83.89
2018-01-30T20:22:24.174Z,84.89
2018-01-30T20:24:51.658Z,85.43
2018-01-30T20:27:19.115Z,85.49
2018-01-30T20:29:46.607Z,85.14
2018-01-30T20:32:14.066Z,84.63
2018-01-30T20:34:41.560Z,84.68
2018-01-30T20:37:14.548Z,85.11
2018-01-30T20:39:42.027Z,85.16
2018-01-30T20:42:09.487Z,85.37
2018-01-30T20:44:36.963Z,85.34
2018-01-30T20:47:04.434Z,85.22
2018-01-30T20:49:31.926Z,85.11
2018-01-30T20:51:59.382Z,85.73
2018-01-30T20:54:26.881Z,85.66
2018-01-30T20:56:54.346Z,85.07
2018-01-30T20:59:21.883Z,85.59
2018-01-30T21:01:49.362Z,86.09
2018-01-30T21:04:16.847Z,86.20
2018-01-30T21:06:44.334Z,86.25
2018-01-30T21:09:11.884Z,85.95
2018-01-30T21:11:39.352Z,85.38
2018-01-30T21:14:06.830Z,84.83
2018-01-30T21:16:34.298Z,84.47
2018-01-30T21:19:01.773Z,83.97
2018-01-30T21:21:29.235Z,83.65
2018-01-30T21:23:56.753Z,83.32
2018-01-30T21:26:24.206Z,82.56
2018-01-30T21:28:51.677Z,82.08
2018-01-30T21:31:19.155Z,82.78
2018-01-30T21:33:46.624Z,82.64
2018-01-30T21:36:14.107Z,82.33
2018-01-30T21:38:41.562Z,81.68
2018-01-30T21:41:09.039Z,81.84
2018-01-30T21:43:36.495Z,80.40
2018-01-30T21:46:03.975Z,80.75
2018-01-30T21:48:31.447Z,80.77
2018-01-30T21:50:58.930Z,81.40
2018-01-30T21:53:26.391Z,81.60
2018-01-30T21:55:53.868Z,81.35
2018-01-30T21:58:21.395Z,81.21
2018-01-30T22:00:48.917Z,81.26
2018-01-30T22:03:16.354Z,81.33
2018-01-30T22:05:43.827Z,81.63
2018-01-30T22:08:11.393Z,82.05
2018-01-30T22:10:38.794Z,81.76
2018-01-30T22:13:06.250Z,81.72
2018-01-30T22:15:33.732Z,81.61
2018-01-30T22:18:01.182Z,81.71
2018-01-30T22:20:28.659Z,82.02
2018-01-30T22:22:56.114Z,82.25
2018-01-30T22:25:23.598Z,81.86
2018-01-30T22:27:51.054Z,82.02
2018-01-30T22:30:18.539Z,82.28
2018-01-30T22:32:45.999Z,82.76
2018-01-30T22:35:13.479Z,83.65
2018-01-30T22:37:40.941Z,84.17
2018-01-30T22:40:08.419Z,84.10
2018-01-30T22:42:35.879Z,84.01
2018-01-30T22:45:03.370Z,84.02
